Time;durP1;ratioP1;P1;durP2;ratioP2;P2;SDS_P1;SDS_P2;PMS_P1;PMS_P2;Temp;Humidity;BMP_temperature;BMP_pressure;BME280_temperature;BME280_humidity;BME280_pressure;Samples;Min_cycle;Max_cycle;Signal;HPM_P1;HPM_P2
2022/07/08 00:00:20;;;;;;;7.65;7.08;;;;;;;17.63;65.90;101189.20;1734159;82;21425;-83
2022/07/08 00:02:47;;;;;;;8.03;7.42;;;;;;;17.63;66.00;101191.81;1716823;82;21531;-83
2022/07/08 00:05:17;;;;;;;8.33;7.55;;;;;;;17.63;66.05;101199.67;1707328;84;21047;-83
2022/07/08 00:07:43;;;;;;;8.13;7.53;;;;;;;17.61;66.12;101194.94;1684534;82;21500;-83
2022/07/08 00:10:10;;;;;;;8.27;7.57;;;;;;;17.62;66.22;101199.72;1718036;82;21379;-83
2022/07/08 00:12:36;;;;;;;8.50;7.83;;;;;;;17.61;66.25;101197.56;1713600;82;21711;-83
2022/07/08 00:15:04;;;;;;;7.95;7.35;;;;;;;17.56;66.33;101207.33;1707438;84;21553;-83
2022/07/08 00:17:30;;;;;;;7.80;7.25;;;;;;;17.56;66.45;101207.33;1710679;82;21143;-83
2022/07/08 00:19:58;;;;;;;8.10;7.42;;;;;;;17.57;66.44;101206.87;1707002;82;21591;-83
2022/07/08 00:22:25;;;;;;;7.53;7.03;;;;;;;17.56;66.49;101212.56;1707333;84;21929;-83
2022/07/08 00:24:51;;;;;;;;;;;;;;;17.53;66.62;101215.28;1720364;82;21039;-83
2022/07/08 00:27:31;;;;;;;7.85;6.95;;;;;;;17.50;67.02;101215.39;1719386;82;20122;-83
2022/07/08 00:29:58;;;;;;;7.17;6.67;;;;;;;17.47;66.70;101212.87;1702817;83;21536;-83
2022/07/08 00:32:24;;;;;;;7.12;6.62;;;;;;;17.43;66.72;101214.75;1709719;83;21575;-83
2022/07/08 00:34:51;;;;;;;6.45;5.95;;;;;;;17.44;66.73;101214.30;1721675;82;21556;-83
2022/07/08 00:37:18;;;;;;;6.40;5.90;;;;;;;17.39;66.76;101212.29;1739146;82;21043;-83
2022/07/08 00:39:50;;;;;;;6.30;5.80;;;;;;;17.36;66.83;101215.02;1722379;82;21591;-83
2022/07/08 00:42:17;;;;;;;6.12;5.62;;;;;;;17.34;66.90;101216.82;1729980;82;21464;-83
2022/07/08 00:44:43;;;;;;;6.33;5.92;;;;;;;17.32;67.00;101222.55;1739350;82;20965;-83
2022/07/08 00:47:09;;;;;;;5.87;5.47;;;;;;;17.29;67.13;101228.74;1738204;82;21484;-83
2022/07/08 00:49:35;;;;;;;7.65;5.50;;;;;;;17.26;67.19;101227.53;1709941;82;21111;-83
2022/07/08 00:52:03;;;;;;;6.47;5.97;;;;;;;17.24;67.25;101229.34;1710267;82;21127;-83
2022/07/08 00:54:29;;;;;;;6.35;5.95;;;;;;;17.24;67.29;101228.49;1709696;82;21630;-83
2022/07/08 00:56:56;;;;;;;7.83;5.83;;;;;;;17.20;67.34;101227.74;1709908;83;21622;-83
2022/07/08 00:59:24;;;;;;;5.35;4.95;;;;;;;17.16;67.32;101231.36;1709631;82;21527;-83
2022/07/08 01:01:50;;;;;;;5.80;5.40;;;;;;;17.16;67.41;101236.59;1732457;82;21576;-83
2022/07/08 01:04:16;;;;;;;6.35;5.35;;;;;;;17.14;67.45;101237.98;1739691;82;20968;-83
2022/07/08 01:06:43;;;;;;;7.35;5.15;;;;;;;17.13;67.58;101246.72;1736062;82;21488;-83
2022/07/08 01:09:11;;;;;;;5.62;5.22;;;;;;;17.12;67.55;101243.70;1709197;83;20988;-83
2022/07/08 01:11:39;;;;;;;5.10;4.70;;;;;;;17.13;67.64;101240.64;1710015;82;21088;-83
2022/07/08 01:14:05;;;;;;;4.92;4.53;;;;;;;17.13;67.70;101245.42;1710102;83;21493;-83
2022/07/08 01:16:32;;;;;;;5.17;4.78;;;;;;;17.14;67.80;101242.35;1722152;82;21016;-83
2022/07/08 01:18:58;;;;;;;4.22;3.92;;;;;;;17.10;67.75;101248.58;1709947;82;20972;-83
2022/07/08 01:21:24;;;;;;;4.27;3.87;;;;;;;17.07;67.80;101241.70;1709969;83;20956;-83
2022/07/08 01:23:51;;;;;;;5.55;3.87;;;;;;;17.08;67.85;101243.86;1710498;82;21036;-83
2022/07/08 01:26:17;;;;;;;4.35;4.05;;;;;;;17.08;67.85;101243.86;1718206;82;21088;-83
2022/07/08 01:28:44;;;;;;;3.65;3.35;;;;;;;17.08;67.95;101241.25;1738380;82;21048;-83
2022/07/08 01:31:10;;;;;;;4.58;3.62;;;;;;;17.07;67.99;101248.69;1711089;83;21102;-83
2022/07/08 01:33:39;;;;;;;6.08;4.10;;;;;;;17.04;68.13;101246.17;1699033;83;20961;-83
2022/07/08 01:36:06;;;;;;;3.75;3.45;;;;;;;17.01;68.19;101246.27;1686681;84;26469;-83
2022/07/08 01:38:32;;;;;;;3.33;3.12;;;;;;;17.01;68.19;101245.81;1688403;83;20997;-83
2022/07/08 01:40:59;;;;;;;4.03;3.70;;;;;;;16.98;68.18;101246.37;1699750;83;20982;-83
2022/07/08 01:43:26;;;;;;;3.72;3.52;;;;;;;16.96;68.28;101249.48;1704338;84;21454;-83
2022/07/08 01:45:52;;;;;;;3.60;3.30;;;;;;;16.95;68.34;101246.47;1703610;83;25542;-83
2022/07/08 01:48:18;;;;;;;3.50;3.30;;;;;;;16.96;68.36;101240.34;1715360;83;20882;-83
2022/07/08 01:50:44;;;;;;;3.62;3.42;;;;;;;16.97;68.34;101238.13;1715667;82;21061;-83
2022/07/08 01:53:13;;;;;;;3.65;3.35;;;;;;;16.96;68.43;101239.89;1706974;82;21017;-83
2022/07/08 01:55:40;;;;;;;3.53;3.23;;;;;;;16.99;68.49;101243.70;1711977;83;21463;-83
2022/07/08 01:58:06;;;;;;;4.97;4.10;;;;;;;17.01;68.45;101249.73;1715631;83;21330;-83
2022/07/08 02:00:32;;;;;;;3.35;2.85;;;;;;;17.00;68.53;101248.02;1715573;83;21105;-83
2022/07/08 02:02:58;;;;;;;3.87;3.07;;;;;;;16.98;68.59;101249.84;1704256;83;21005;-83
2022/07/08 02:05:26;;;;;;;5.47;3.23;;;;;;;16.97;68.62;101249.88;1687040;83;20973;-83
2022/07/08 02:07:53;;;;;;;4.22;3.05;;;;;;;16.99;68.72;101253.30;1688125;85;20906;-83
2022/07/08 02:10:19;;;;;;;4.28;3.05;;;;;;;17.00;68.68;101254.56;1688250;84;21530;-83
2022/07/08 02:12:45;;;;;;;3.87;3.53;;;;;;;16.99;68.77;101252.85;1694931;83;20946;-83
2022/07/08 02:15:11;;;;;;;3.90;3.50;;;;;;;16.97;68.79;101253.35;1687813;83;20977;-83
2022/07/08 02:17:40;;;;;;;4.07;3.33;;;;;;;16.99;68.85;101244.16;1686901;85;20985;-83
2022/07/08 02:20:11;;;;;;;6.25;4.45;;;;;;;17.00;68.87;101249.78;1694066;83;21244;-83
2022/07/08 02:22:38;;;;;;;5.72;4.87;;;;;;;17.01;68.95;101256.27;1705498;83;20958;-83
2022/07/08 02:25:05;;;;;;;5.37;4.87;;;;;;;17.03;68.95;101253.16;1707554;83;20914;-83
2022/07/08 02:27:31;;;;;;;6.58;5.95;;;;;;;17.03;68.99;101253.61;1701654;83;20918;-83
2022/07/08 02:29:57;;;;;;;6.62;5.87;;;;;;;17.06;69.05;101257.42;1725613;82;21224;-83
2022/07/08 02:32:23;;;;;;;7.40;6.30;;;;;;;17.06;69.06;101256.12;1705856;84;20878;-83
2022/07/08 02:34:50;;;;;;;13.60;8.53;;;;;;;17.08;69.12;101256.47;1736958;82;20921;-83
2022/07/08 02:37:16;;;;;;;10.90;8.88;;;;;;;17.11;69.17;101260.74;1722050;82;21384;-83
2022/07/08 02:39:42;;;;;;;12.00;9.40;;;;;;;17.11;69.17;101264.21;1726231;82;20866;-83
2022/07/08 02:42:12;;;;;;;12.33;9.63;;;;;;;17.12;69.22;101264.61;1720667;82;21216;-83
2022/07/08 02:44:38;;;;;;;12.13;9.73;;;;;;;17.14;69.23;101273.26;1711139;82;20895;-83
2022/07/08 02:47:05;;;;;;;18.70;9.93;;;;;;;17.15;69.25;101272.36;1711408;82;20956;-83
2022/07/08 02:49:31;;;;;;;;;;;;;;;17.14;69.25;101270.64;1711337;84;20916;-83
2022/07/08 02:51:57;;;;;;;15.13;10.68;;;;;;;17.13;69.72;101272.86;1708947;84;20103;-83
2022/07/08 02:54:30;;;;;;;17.92;11.20;;;;;;;17.13;69.39;101272.86;1712280;82;20949;-83
2022/07/08 02:56:56;;;;;;;15.57;12.33;;;;;;;17.13;69.42;101273.31;1709035;84;20939;-84
2022/07/08 02:59:22;;;;;;;18.90;11.73;;;;;;;17.12;69.44;101274.22;1709079;84;20854;-84
2022/07/08 03:01:49;;;;;;;19.90;13.30;;;;;;;17.12;69.41;101284.22;1722235;82;20937;-84
2022/07/08 03:04:15;;;;;;;16.97;12.60;;;;;;;17.12;69.46;101283.36;1709095;82;20965;-84
2022/07/08 03:06:41;;;;;;;16.03;12.47;;;;;;;17.12;69.50;101282.91;1709232;84;21394;-84
2022/07/08 03:09:07;;;;;;;18.37;13.83;;;;;;;17.13;69.53;101287.69;1709314;84;20976;-84
2022/07/08 03:11:33;;;;;;;19.93;14.77;;;;;;;17.14;69.59;101294.16;1695712;84;21167;-84
2022/07/08 03:13:59;;;;;;;18.17;12.55;;;;;;;17.15;69.64;101295.88;1737643;82;20905;-84
2022/07/08 03:16:27;;;;;;;17.48;13.08;;;;;;;17.17;69.67;101301.87;1738351;82;20909;-84
2022/07/08 03:18:53;;;;;;;24.30;13.67;;;;;;;17.18;69.70;101297.05;1728822;82;20909;-84
2022/07/08 03:21:19;;;;;;;23.33;14.67;;;;;;;17.19;69.71;101297.91;1709225;82;20949;-84
2022/07/08 03:23:46;;;;;;;19.00;13.85;;;;;;;17.19;69.74;101301.37;1709002;84;20885;-84
2022/07/08 03:26:12;;;;;;;19.70;13.80;;;;;;;17.21;69.75;101302.63;1707574;84;21051;-84
2022/07/08 03:28:38;;;;;;;22.90;14.70;;;;;;;17.21;69.85;101306.55;1714944;82;21154;-84
2022/07/08 03:31:04;;;;;;;20.57;13.67;;;;;;;17.20;69.82;101302.23;1707402;82;21420;-84
2022/07/08 03:33:30;;;;;;;17.95;13.68;;;;;;;17.21;69.87;101307.41;1707692;84;20945;-84
2022/07/08 03:35:56;;;;;;;22.02;14.78;;;;;;;17.19;69.90;101310.97;1707608;84;21306;-84
2022/07/08 03:38:28;;;;;;;18.25;14.38;;;;;;;17.19;69.94;101317.05;1707768;82;21047;-84
2022/07/08 03:43:39;;;;;;;20.12;14.35;;;;;;;17.18;70.02;101323.19;1707394;83;21138;-84
2022/07/08 03:46:05;;;;;;;21.52;14.87;;;;;;;17.20;70.07;101322.69;1710024;82;21056;-84
2022/07/08 03:48:31;;;;;;;22.48;14.73;;;;;;;17.22;70.07;101322.64;1736647;82;21390;-84
2022/07/08 03:51:03;;;;;;;20.52;14.43;;;;;;;17.25;70.12;101322.99;1716874;82;21032;-84
2022/07/08 03:53:29;;;;;;;20.00;13.70;;;;;;;17.26;70.13;101321.64;1707394;84;21035;-84
2022/07/08 03:55:55;;;;;;;16.20;13.87;;;;;;;17.27;70.12;101333.80;1707351;84;20976;-84
2022/07/08 03:58:21;;;;;;;24.67;13.77;;;;;;;17.29;70.19;101330.69;1716020;82;21082;-84
2022/07/08 04:00:47;;;;;;;19.30;14.20;;;;;;;17.29;70.21;101338.98;1707628;82;20987;-84
2022/07/08 04:03:13;;;;;;;22.23;14.53;;;;;;;17.29;70.24;101337.22;1707426;84;20909;-84
2022/07/08 04:05:39;;;;;;;19.23;13.55;;;;;;;17.31;70.25;101339.34;1707450;84;21078;-84
2022/07/08 04:08:05;;;;;;;26.33;14.23;;;;;;;17.33;70.30;101341.90;1702232;82;21076;-84
2022/07/08 04:10:31;;;;;;;22.17;13.98;;;;;;;17.28;70.32;101339.43;1719777;82;21457;-84
2022/07/08 04:13:04;;;;;;;22.02;13.00;;;;;;;17.26;70.35;101347.78;1736371;82;21098;-83
2022/07/08 04:15:30;;;;;;;23.80;13.87;;;;;;;17.28;70.38;101347.73;1718713;82;21566;-83
2022/07/08 04:17:56;;;;;;;25.40;14.10;;;;;;;17.26;70.42;101348.23;1713941;82;21092;-83
2022/07/08 04:20:22;;;;;;;28.27;12.47;;;;;;;17.26;70.44;101349.08;1713696;82;21356;-83
2022/07/08 04:22:48;;;;;;;24.60;12.57;;;;;;;17.26;70.48;101352.15;1708306;82;21141;-83
2022/07/08 04:25:17;;;;;;;18.02;12.55;;;;;;;17.27;70.48;101350.80;1736325;82;20977;-83
2022/07/08 04:27:43;;;;;;;26.20;13.33;;;;;;;17.28;70.53;101348.58;1736750;82;20992;-83
2022/07/08 04:30:09;;;;;;;27.13;12.57;;;;;;;17.29;70.53;101353.36;1732091;82;21638;-83
2022/07/08 04:32:35;;;;;;;27.30;12.37;;;;;;;17.29;70.60;101363.36;1723425;82;21056;-83
2022/07/08 04:35:01;;;;;;;26.70;11.83;;;;;;;17.30;70.59;101363.77;1737111;82;21000;-83
2022/07/08 04:37:29;;;;;;;28.10;12.33;;;;;;;17.31;70.59;101361.55;1720340;82;21076;-83
2022/07/08 04:39:55;;;;;;;20.15;10.82;;;;;;;17.33;70.66;101368.05;1707309;84;21055;-83
2022/07/08 04:42:22;;;;;;;26.42;11.50;;;;;;;17.34;70.63;101371.91;1719359;82;21486;-83
2022/07/08 04:44:48;;;;;;;19.30;11.13;;;;;;;17.33;70.69;101370.66;1736906;82;21056;-83
2022/07/08 04:47:15;;;;;;;19.05;11.28;;;;;;;17.34;70.64;101374.53;1736794;82;21053;-83
2022/07/08 04:49:41;;;;;;;18.82;11.25;;;;;;;17.37;70.73;101374.88;1727634;82;24165;-83
2022/07/08 04:52:07;;;;;;;22.85;11.85;;;;;;;17.38;70.77;101382.67;1736642;82;21112;-83
2022/07/08 04:54:35;;;;;;;21.23;11.67;;;;;;;17.41;70.78;101379.11;1736929;82;20968;-83
2022/07/08 04:57:01;;;;;;;18.85;11.45;;;;;;;17.42;70.77;101377.75;1733112;82;21060;-83
2022/07/08 04:59:27;;;;;;;20.90;11.40;;;;;;;17.44;70.78;101375.95;1713804;82;21119;-83
2022/07/08 05:01:53;;;;;;;21.80;11.47;;;;;;;17.47;70.81;101386.30;1707242;84;21067;-83
2022/07/08 05:04:21;;;;;;;18.55;10.68;;;;;;;17.47;70.78;101382.39;1700008;82;20988;-83
2022/07/08 05:06:47;;;;;;;23.70;11.07;;;;;;;17.48;70.84;101384.55;1736940;82;21095;-83
2022/07/08 05:09:14;;;;;;;23.18;10.70;;;;;;;17.48;70.87;101389.33;1736631;82;21687;-83
2022/07/08 05:11:43;;;;;;;17.92;10.98;;;;;;;17.50;70.89;101393.20;1735983;82;21131;-83
2022/07/08 05:14:13;;;;;;;20.97;11.03;;;;;;;17.51;70.86;101398.38;1723294;82;21036;-83
2022/07/08 05:16:37;;;;;;;20.88;11.38;;;;;;;17.53;70.88;101400.49;1731655;82;20996;-83
2022/07/08 05:19:04;;;;;;;18.77;10.77;;;;;;;17.53;70.95;101404.87;1727551;82;21087;-83
2022/07/08 05:21:36;;;;;;;24.85;12.13;;;;;;;17.50;71.01;101407.13;1709855;82;21077;-83
2022/07/08 05:24:01;;;;;;;22.98;12.18;;;;;;;17.48;70.94;101405.47;1725385;82;21078;-83
2022/07/08 05:26:27;;;;;;;23.47;13.03;;;;;;;17.47;70.96;101415.52;1720667;82;21083;-83
2022/07/08 05:28:53;;;;;;;25.50;12.17;;;;;;;17.44;71.06;101414.31;1707478;84;20899;-83
2022/07/08 05:31:19;;;;;;;;;;;;;;;17.43;71.04;101421.75;1698620;83;21112;-83
2022/07/08 05:33:46;;;;;;;21.33;12.35;;;;;;;17.42;71.30;101416.12;1686663;83;20187;-83
2022/07/08 05:36:12;;;;;;;24.17;13.77;;;;;;;17.42;71.09;101423.97;1686847;85;21077;-83
2022/07/08 05:38:39;;;;;;;25.48;12.23;;;;;;;17.30;71.00;101399.05;1698853;83;21146;-83
2022/07/08 05:41:05;;;;;;;24.93;12.83;;;;;;;17.41;71.08;101422.25;1687454;83;21039;-83
2022/07/08 05:43:31;;;;;;;24.63;11.70;;;;;;;17.42;71.11;101414.36;1686720;85;20979;-83
2022/07/08 05:45:59;;;;;;;23.55;11.70;;;;;;;17.47;71.16;101422.06;1694910;83;20997;-83
2022/07/08 05:48:25;;;;;;;27.00;12.97;;;;;;;17.48;71.13;101417.23;1701776;83;21092;-83
2022/07/08 05:50:51;;;;;;;24.07;13.05;;;;;;;17.51;71.21;101415.38;1694489;83;22089;-83
2022/07/08 05:53:21;;;;;;;22.93;12.95;;;;;;;17.54;71.17;101415.73;1690265;83;21061;-83
2022/07/08 05:55:48;;;;;;;18.33;11.17;;;;;;;17.58;71.21;101418.66;1686841;84;20993;-83
2022/07/08 05:58:14;;;;;;;27.10;12.35;;;;;;;17.60;71.18;101417.30;1688216;83;21076;-83
2022/07/08 06:00:41;;;;;;;;;;;;;;;17.62;71.19;101430.73;1690233;82;21341;-83
2022/07/08 06:03:07;;;;;;;26.25;11.88;;;;;;;17.64;71.55;101428.06;1702475;83;20875;-83
2022/07/08 06:05:33;;;;;;;28.13;12.13;;;;;;;17.66;71.24;101434.14;1687648;83;21065;-84
2022/07/08 06:07:59;;;;;;;21.60;12.23;;;;;;;17.67;71.22;101431.47;1688536;82;21053;-84
2022/07/08 06:10:28;;;;;;;23.00;11.10;;;;;;;17.69;71.22;101434.86;1686989;85;21073;-84
2022/07/08 06:12:55;;;;;;;21.10;11.97;;;;;;;17.68;71.21;101440.99;1687331;83;21102;-84
2022/07/08 06:15:21;;;;;;;23.67;11.10;;;;;;;17.71;71.28;101439.59;1687644;83;21072;-84
2022/07/08 06:17:48;;;;;;;20.37;11.73;;;;;;;17.75;71.34;101442.51;1695437;83;21029;-84
2022/07/08 06:20:14;;;;;;;23.30;11.47;;;;;;;17.77;71.27;101440.70;1715651;83;21108;-84
2022/07/08 06:22:41;;;;;;;23.57;12.45;;;;;;;17.80;71.27;101452.83;1715734;82;21084;-84
2022/07/08 06:25:08;;;;;;;18.73;11.22;;;;;;;17.79;71.30;101450.66;1709533;83;21108;-84
2022/07/08 06:27:35;;;;;;;;;;;;;;;17.84;71.31;101450.52;1689125;83;21144;-83
2022/07/08 06:30:03;;;;;;;23.70;12.10;;;;;;;17.88;71.56;101453.43;1677645;83;331359;-83
2022/07/08 06:32:29;;;;;;;15.48;10.58;;;;;;;17.91;71.37;101457.26;1698771;83;21124;-83
2022/07/08 06:34:55;;;;;;;19.07;10.80;;;;;;;17.98;71.37;101450.06;1686803;83;21073;-83
2022/07/08 06:37:29;;;;;;;18.40;11.68;;;;;;;18.03;71.40;101454.23;1698726;83;21049;-83
2022/07/08 06:39:55;;;;;;;23.13;11.10;;;;;;;18.04;71.32;101455.09;1686823;84;21061;-84
2022/07/08 06:42:22;;;;;;;16.87;10.80;;;;;;;18.03;71.24;101462.09;1687277;83;21023;-84
2022/07/08 06:44:49;;;;;;;15.28;10.25;;;;;;;18.03;71.30;101467.77;1693451;83;21089;-84
2022/07/08 06:47:15;;;;;;;17.93;10.40;;;;;;;18.05;71.32;101464.66;1686640;85;21057;-83
2022/07/08 06:49:42;;;;;;;22.43;11.27;;;;;;;18.09;71.32;101472.80;1686933;84;21065;-83
2022/07/08 06:52:08;;;;;;;20.52;10.85;;;;;;;18.12;71.31;101472.70;1693826;83;20977;-84
2022/07/08 06:54:37;;;;;;;16.50;10.77;;;;;;;18.15;71.33;101465.61;1691203;83;21658;-84
2022/07/08 06:57:07;;;;;;;15.45;11.08;;;;;;;18.21;71.34;101478.91;1660016;85;21056;-84
2022/07/08 06:59:41;;;;;;;18.25;10.93;;;;;;;18.31;71.37;101470.29;1696631;83;20949;-84
2022/07/08 07:02:11;;;;;;;16.82;10.40;;;;;;;18.39;71.33;101470.42;1700492;82;20926;-84
2022/07/08 07:04:37;;;;;;;17.47;10.07;;;;;;;18.46;71.31;101470.62;1700620;82;20938;-84
2022/07/08 07:07:04;;;;;;;17.67;9.77;;;;;;;18.53;71.31;101477.35;1710272;83;20887;-84
2022/07/08 07:09:31;;;;;;;;;;;;;;;18.72;71.32;101479.32;1706760;82;20930;-84
2022/07/08 07:11:57;;;;;;;18.73;10.58;;;;;;;18.91;71.40;101477.75;1701436;82;20136;-84
2022/07/08 07:14:23;;;;;;;15.97;10.43;;;;;;;19.08;71.16;101471.88;1688257;85;20928;-84
2022/07/08 07:16:51;;;;;;;14.73;9.40;;;;;;;19.20;71.17;101471.88;1694647;83;20896;-84
2022/07/08 07:19:17;;;;;;;18.70;9.60;;;;;;;19.31;71.02;101478.39;1697285;83;20863;-84
2022/07/08 07:21:43;;;;;;;14.00;8.97;;;;;;;19.41;70.94;101478.89;1688172;84;21679;-84
2022/07/08 07:24:08;;;;;;;14.93;10.13;;;;;;;19.46;70.85;101484.36;1690521;83;20929;-84
2022/07/08 07:26:36;;;;;;;18.45;9.70;;;;;;;19.50;70.82;101483.78;1688097;83;20910;-84
2022/07/08 07:29:04;;;;;;;16.48;9.28;;;;;;;19.59;70.86;101490.47;1687743;85;20910;-84
2022/07/08 07:31:30;;;;;;;13.30;8.60;;;;;;;19.63;70.70;101489.44;1707379;82;20913;-84
2022/07/08 07:33:56;;;;;;;11.10;9.00;;;;;;;19.61;70.69;101496.52;1708635;82;21391;-84
2022/07/08 07:36:24;;;;;;;13.50;9.03;;;;;;;19.65;70.66;101499.41;1708264;82;20976;-84
2022/07/08 07:38:50;;;;;;;11.90;8.55;;;;;;;19.64;70.63;101494.63;1714157;82;21012;-84
2022/07/08 07:41:16;;;;;;;13.80;8.68;;;;;;;19.65;70.53;101497.64;1708093;82;21033;-84
2022/07/08 07:43:42;;;;;;;14.47;8.20;;;;;;;19.63;70.47;101495.54;1721951;82;21409;-84
2022/07/08 07:46:08;;;;;;;19.10;8.93;;;;;;;19.56;70.43;101502.40;1737216;82;21277;-83
2022/07/08 07:48:35;;;;;;;14.83;9.85;;;;;;;19.49;70.39;101497.35;1737079;82;21418;-83
2022/07/08 07:51:02;;;;;;;16.10;8.45;;;;;;;19.46;70.46;101496.16;1736441;82;20948;-84
2022/07/08 07:53:29;;;;;;;;;;;;;;;19.46;70.45;101506.66;1733047;82;21008;-84
2022/07/08 07:55:57;;;;;;;15.23;9.20;;;;;;;19.48;70.15;101504.83;1730137;82;20123;-84
2022/07/08 07:58:24;;;;;;;15.75;8.40;;;;;;;19.45;70.26;101502.78;1722894;82;21483;-84
2022/07/08 08:00:51;;;;;;;15.72;9.08;;;;;;;19.43;70.25;101505.46;1712052;82;20949;-84
2022/07/08 08:03:18;;;;;;;15.20;9.18;;;;;;;19.47;70.28;101510.13;1731665;82;20949;-84
2022/07/08 08:05:44;;;;;;;;;;;;;;;19.57;70.29;101504.11;1740848;82;20945;-84
2022/07/08 08:08:11;;;;;;;11.33;9.63;;;;;;;19.65;69.99;101512.53;1736838;82;20830;-84
2022/07/08 08:10:37;;;;;;;;;;;;;;;19.65;70.03;101504.20;1727414;82;21328;-84
2022/07/08 08:13:04;;;;;;;13.05;9.68;;;;;;;19.68;69.85;101508.48;1736179;82;20171;-84
2022/07/08 08:15:32;;;;;;;15.93;9.20;;;;;;;19.77;70.06;101511.56;1720970;82;21071;-84
2022/07/08 08:18:01;;;;;;;11.30;8.40;;;;;;;19.91;70.07;101500.97;1707083;84;21406;-84
2022/07/08 08:20:29;;;;;;;11.17;8.50;;;;;;;20.64;70.35;101508.39;1707604;82;21426;-84
2022/07/08 08:22:56;;;;;;;13.25;7.25;;;;;;;21.60;70.19;101500.88;1728347;82;21506;-84
2022/07/08 08:25:22;;;;;;;10.48;8.10;;;;;;;22.52;69.95;101493.66;1736754;82;21547;-84
2022/07/08 08:27:48;;;;;;;9.10;7.03;;;;;;;23.20;69.68;101495.75;1736860;82;21482;-85
2022/07/08 08:30:20;;;;;;;11.18;7.30;;;;;;;23.99;69.52;101489.92;1732722;82;21465;-85
2022/07/08 08:32:47;;;;;;;12.23;7.08;;;;;;;24.29;68.71;101485.98;1713617;82;21437;-85
2022/07/08 08:35:13;;;;;;;7.00;5.80;;;;;;;24.61;68.33;101488.84;1707478;84;21495;-85
2022/07/08 08:37:52;;;;;;;7.05;6.03;;;;;;;24.61;68.33;101488.84;1706998;84;22744;-85
2022/07/08 08:40:21;;;;;;;6.15;5.35;;;;;;;24.37;67.70;101477.98;1708063;82;20988;-85
2022/07/08 08:42:48;;;;;;;10.93;5.17;;;;;;;24.05;67.52;101482.96;1726767;82;20905;-84
2022/07/08 08:45:17;;;;;;;6.72;4.85;;;;;;;23.63;67.29;101487.63;1738473;82;21406;-84
2022/07/08 08:47:48;;;;;;;6.13;5.17;;;;;;;23.26;67.22;101488.34;1731261;82;21371;-84
2022/07/08 08:53:02;;;;;;;4.92;4.30;;;;;;;22.74;66.88;101495.10;1738610;82;21859;-84
2022/07/08 08:55:31;;;;;;;6.40;4.67;;;;;;;22.50;66.76;101489.78;1725928;82;20873;-84
2022/07/08 08:58:00;;;;;;;5.80;5.20;;;;;;;22.36;66.66;101493.12;1738094;82;20858;-84
2022/07/08 09:00:29;;;;;;;7.67;4.58;;;;;;;22.31;66.44;101499.59;1738076;82;21411;-84
2022/07/08 09:02:56;;;;;;;6.45;4.40;;;;;;;22.21;66.21;101498.35;1726785;82;21433;-84
2022/07/08 09:05:25;;;;;;;5.60;4.25;;;;;;;22.05;65.80;101495.16;1714363;82;21739;-84
2022/07/08 09:07:53;;;;;;;4.67;3.92;;;;;;;21.90;65.37;101492.40;1707610;84;21476;-84
2022/07/08 09:10:20;;;;;;;;;;;;;;;21.79;65.35;101505.66;1709721;82;21512;-84
2022/07/08 09:13:06;;;;;;;6.60;4.12;;;;;;;21.70;63.23;101503.47;1723182;82;20462;-84
2022/07/08 09:15:42;;;;;;;3.87;3.33;;;;;;;21.66;64.78;101508.95;1736538;82;21524;-84
2022/07/08 09:18:16;;;;;;;3.83;3.40;;;;;;;21.53;63.93;101502.09;1736321;82;21587;-84
2022/07/08 09:20:46;;;;;;;3.75;2.33;;;;;;;21.52;64.46;101499.08;1726045;82;21108;-84
2022/07/08 09:23:24;;;;;;;2.52;1.92;;;;;;;21.59;63.96;101503.59;1736852;82;22156;-84
2022/07/08 09:25:54;;;;;;;4.53;1.60;;;;;;;21.64;63.89;101506.39;1728916;82;21378;-84
2022/07/08 09:28:43;;;;;;;2.83;1.90;;;;;;;21.75;63.52;101503.24;1724166;82;21088;-84
2022/07/08 09:31:12;;;;;;;5.30;2.02;;;;;;;21.75;63.13;101499.30;1734937;82;21041;-84
2022/07/08 09:33:41;;;;;;;6.17;4.45;;;;;;;21.68;62.91;101513.22;1706267;82;21637;-84
2022/07/08 09:36:09;;;;;;;7.58;4.72;;;;;;;21.55;62.72;101509.92;1715394;82;22198;-84
2022/07/08 09:38:39;;;;;;;6.97;5.08;;;;;;;21.42;62.93;101516.22;1715377;82;21833;-83
2022/07/08 09:41:10;;;;;;;7.33;5.37;;;;;;;21.38;62.91;101515.98;1703471;83;21500;-84
2022/07/08 09:43:50;;;;;;;6.45;5.12;;;;;;;21.27;62.81;101522.22;1717163;82;21419;-84
2022/07/08 09:46:17;;;;;;;9.25;5.62;;;;;;;21.29;62.92;101524.33;1700046;83;21432;-83
2022/07/08 09:48:44;;;;;;;7.42;5.62;;;;;;;21.36;62.93;101521.77;1688308;83;20953;-84
2022/07/08 09:51:17;;;;;;;6.47;4.78;;;;;;;21.55;63.09;101517.81;1700928;83;20870;-84
2022/07/08 09:53:44;;;;;;;5.70;4.33;;;;;;;21.83;62.92;101521.30;1688417;84;21383;-84
2022/07/08 09:56:10;;;;;;;7.05;4.58;;;;;;;21.99;62.70;101514.34;1688266;84;21428;-84
2022/07/08 09:58:37;;;;;;;5.22;4.28;;;;;;;22.12;62.55;101515.00;1694925;83;21399;-84
2022/07/08 10:01:04;;;;;;;8.43;4.60;;;;;;;22.22;62.36;101506.18;1691457;82;21395;-84
2022/07/08 10:03:30;;;;;;;5.28;4.35;;;;;;;22.37;62.44;101506.69;1688318;84;20939;-84
2022/07/08 10:05:56;;;;;;;9.23;4.73;;;;;;;22.51;62.37;101504.67;1695385;83;20902;-84
2022/07/08 10:08:23;;;;;;;5.67;3.58;;;;;;;22.62;62.16;101507.61;1704633;82;21327;-84
2022/07/08 10:10:50;;;;;;;3.95;3.58;;;;;;;22.68;61.99;101503.80;1688089;83;20930;-84
2022/07/08 10:13:20;;;;;;;6.62;3.50;;;;;;;22.73;61.92;101503.09;1691515;82;20943;-84
2022/07/08 10:15:49;;;;;;;6.08;4.20;;;;;;;22.88;61.56;101501.44;1688138;85;20914;-84
2022/07/08 10:18:19;;;;;;;7.42;3.65;;;;;;;22.88;61.36;101500.11;1688892;83;21021;-84
2022/07/08 10:20:53;;;;;;;6.08;4.17;;;;;;;22.99;61.51;101495.13;1702883;83;21021;-84
2022/07/08 10:23:50;;;;;;;5.83;3.80;;;;;;;23.10;61.18;101501.98;1713017;83;21081;-84
2022/07/08 10:26:26;;;;;;;5.85;3.75;;;;;;;23.09;60.97;101497.18;1589950;83;10000607;-84
2022/07/08 10:29:08;;;;;;;5.08;4.00;;;;;;;23.06;60.85;101501.77;1689819;83;20953;-84
2022/07/08 10:31:47;;;;;;;8.13;3.60;;;;;;;22.99;60.80;101495.13;1700708;83;20958;-84
2022/07/08 10:34:22;;;;;;;5.78;3.35;;;;;;;22.83;60.61;101507.45;1709101;84;20945;-84
2022/07/08 10:36:55;;;;;;;5.60;3.37;;;;;;;22.57;60.44;101513.58;1715302;82;20889;-84
2022/07/08 10:39:41;;;;;;;6.97;4.00;;;;;;;22.34;60.20;101517.89;1714696;82;20965;-84
2022/07/08 10:42:09;;;;;;;7.97;3.25;;;;;;;22.08;60.08;101517.41;1717005;82;21240;-84
2022/07/08 10:44:52;;;;;;;6.17;3.27;;;;;;;21.91;60.19;101519.97;1707110;82;21079;-84
2022/07/08 10:47:31;;;;;;;5.40;3.40;;;;;;;21.82;59.73;101520.92;1706431;84;20960;-84
2022/07/08 10:50:07;;;;;;;4.15;3.52;;;;;;;21.68;59.86;101520.27;1709223;82;21099;-84
2022/07/08 10:52:43;;;;;;;7.22;3.27;;;;;;;21.64;59.81;101520.02;1708111;84;20937;-84
2022/07/08 10:55:16;;;;;;;4.47;3.37;;;;;;;21.60;59.66;101528.52;1680307;84;21412;-84
2022/07/08 10:57:57;;;;;;;8.33;3.92;;;;;;;21.55;59.56;101521.30;1715090;82;20881;-84
2022/07/08 11:00:24;;;;;;;4.20;3.40;;;;;;;21.53;59.49;101536.31;1724015;82;20974;-84
2022/07/08 11:02:52;;;;;;;4.83;3.33;;;;;;;21.51;59.43;101533.36;1732039;82;20866;-84
2022/07/08 11:05:36;;;;;;;;;;;;;;;21.48;59.13;101535.21;1734457;82;20858;-84
2022/07/08 11:08:22;;;;;;;5.40;3.87;;;;;;;21.46;58.94;101537.52;1709922;82;20186;-84
2022/07/08 11:10:51;;;;;;;5.33;4.17;;;;;;;21.37;59.11;101533.54;1712861;82;21048;-84
2022/07/08 11:13:21;;;;;;;5.62;4.67;;;;;;;21.25;58.70;101535.91;1715563;82;20862;-84
2022/07/08 11:15:48;;;;;;;6.33;4.30;;;;;;;21.11;58.88;101549.65;1708673;84;20915;-84
2022/07/08 11:18:24;;;;;;;4.65;3.42;;;;;;;21.05;58.87;101551.23;1716420;82;20874;-84
2022/07/08 11:21:00;;;;;;;11.18;3.62;;;;;;;21.03;58.86;101557.88;1708817;82;20941;-84
2022/07/08 11:23:28;;;;;;;4.47;3.30;;;;;;;20.96;58.68;101566.11;1708684;84;20906;-84
2022/07/08 11:25:58;;;;;;;4.08;3.02;;;;;;;20.85;58.59;101561.31;1715448;82;20933;-84
2022/07/08 11:28:25;;;;;;;8.83;3.12;;;;;;;20.77;58.41;101563.45;1729795;82;20937;-84
2022/07/08 11:30:53;;;;;;;3.17;2.62;;;;;;;20.71;58.39;101571.61;1738201;82;20926;-84